< < Back
Terminal Aerodrome Forecast


Current Version              Previous Versions:   1  2  3  4  5  6  7  8  9  

Terminal Aerodrome Forecast

202
FTUS42 KMLB 310200 AAA
TAFDAB
TAF AMD
KDAB 310248Z 3103/3124 36008KT P6SM SCT016 BKN027 OVC100
     FM310600 21003KT P6SM VCSH SCT040 BKN100
     FM311300 30007KT P6SM SCT050 SCT250=



Latest METAR

888
SAUS80 KWBC 311800 RRA
MTRDAB
METAR KDAB 311753Z 30012KT 10SM FEW055 25/12 A2980 RMK AO2 SLP092
T02500117 10256 20172 58021


USA.gov is the U.S. government's official web portal to all federal, state and local government web resources and services.